Página principal
METAR-TAF:

METAR-TAF

Aeroportos :

Aeroporto Internacional de Atenas

Atenas, Grécia

latitude: 37-56N, longitude: 023-56E, altura: 94 m

Observação actual do tempo

O boletim foi feito há 28 minutos, às 10:20 UTC
Vento 22 kt de nor-nordeste
Temperatura 33°C
Humidade 28%
Pressão 1016 hPa
Visibilidade 10 km ou mais
sem nuvens abaixo de 1500 metros e sem cumulonimbus

METAR: LGAV 231020Z 02022KT CAVOK 33/12 Q1016 NOSIG

Hora: 13:48 (10:48 UTC)

Previsão

O boletim foi feito há 5 horas e 48 minutos, às 05:00 UTC
Previsão válida de 23 às 06 UTC a 24 às 06 UTC
Vento 20 kt de nor-nordeste com rajadas de 30 kt
Visibilidade 10 km ou mais
Poucas nuvensa uma altura de 2500 ft

TAF: LGAV 230500Z 2306/2406 03020G30KT 9999 FEW025

Observações e previsões do tempo de mais de 4000 aeroportos (mensagens METAR e TAF).

As estações disponíveis são os pontos amarelos e vermelhos sobre o mapa.

Mova o rato sobre o mapa para ver o nome da estação.

Depois clique no ponto para visualizar as observações e previsões meteorológicas.

Para alterar o mapa : clique nos botões verdes com uma cruz preta para aumentar o zoom; no botão verde com uma pitada de zoom; ou nas setas verdes para mapas adjacentes.


METAR-TAF: